createdAt,value
2023-04-30T00:03:53.681Z,100.00
2023-04-30T00:08:56.406Z,100.00
2023-04-30T00:13:59.078Z,100.00
2023-04-30T00:19:01.450Z,100.00
2023-04-30T00:24:04.152Z,100.00
2023-04-30T00:29:07.198Z,100.00
2023-04-30T00:34:09.977Z,100.00
2023-04-30T00:39:12.878Z,100.00
2023-04-30T00:44:15.109Z,100.00
2023-04-30T00:49:17.775Z,100.00
2023-04-30T00:54:21.708Z,100.00
2023-04-30T00:59:25.476Z,100.00
2023-04-30T01:04:29.060Z,100.00
2023-04-30T01:09:32.673Z,100.00
2023-04-30T01:14:48.497Z,100.00
2023-04-30T01:19:51.505Z,100.00
2023-04-30T01:25:13.033Z,100.00
2023-04-30T01:30:17.212Z,100.00
2023-04-30T01:35:19.839Z,100.00
2023-04-30T01:40:28.757Z,100.00
2023-04-30T01:45:43.520Z,100.00
2023-04-30T01:51:02.379Z,100.00
2023-04-30T01:56:09.137Z,100.00
2023-04-30T02:01:27.616Z,100.00
2023-04-30T02:06:31.547Z,100.00
2023-04-30T02:11:34.693Z,100.00
2023-04-30T02:16:37.457Z,100.00
2023-04-30T02:21:40.271Z,100.00
2023-04-30T02:26:43.051Z,100.00
2023-04-30T02:31:45.813Z,100.00
2023-04-30T02:36:48.070Z,100.00
2023-04-30T02:41:50.767Z,100.00
2023-04-30T02:46:53.410Z,100.00
2023-04-30T02:51:56.608Z,100.00
2023-04-30T02:56:58.848Z,100.00
2023-04-30T03:02:01.778Z,100.00
2023-04-30T03:07:04.481Z,100.00
2023-04-30T03:12:07.119Z,100.00
2023-04-30T03:17:09.935Z,100.00
2023-04-30T03:22:12.617Z,100.00
2023-04-30T03:27:17.195Z,100.00
2023-04-30T03:32:19.910Z,100.00
2023-04-30T03:37:22.628Z,100.00
2023-04-30T03:42:25.365Z,100.00
2023-04-30T03:47:27.602Z,100.00
2023-04-30T03:52:31.804Z,100.00
2023-04-30T03:57:34.386Z,100.00
2023-04-30T04:02:38.165Z,100.00
2023-04-30T04:07:41.612Z,100.00
2023-04-30T04:12:44.540Z,100.00
2023-04-30T04:17:47.240Z,100.00
2023-04-30T04:22:50.314Z,96.72
2023-04-30T04:27:53.081Z,96.15
2023-04-30T04:32:55.846Z,92.60
2023-04-30T04:37:58.150Z,89.33
2023-04-30T04:43:00.898Z,85.27
2023-04-30T04:48:03.559Z,82.73
2023-04-30T04:53:06.485Z,79.67
2023-04-30T04:58:08.760Z,77.28
2023-04-30T05:03:11.479Z,73.89
2023-04-30T05:08:14.158Z,75.49
2023-04-30T05:13:16.345Z,72.41
2023-04-30T05:18:19.085Z,69.63
2023-04-30T05:23:21.968Z,62.65
2023-04-30T05:28:24.668Z,56.29
2023-04-30T05:33:27.734Z,55.47
2023-04-30T05:38:30.458Z,50.34
2023-04-30T05:43:33.168Z,47.67
2023-04-30T05:48:35.399Z,47.73
2023-04-30T05:53:37.946Z,49.57
2023-04-30T05:58:40.421Z,51.70
2023-04-30T06:03:43.103Z,42.33
2023-04-30T06:08:45.868Z,33.49
2023-04-30T06:13:49.760Z,29.90
2023-04-30T06:18:53.686Z,24.79
2023-04-30T06:23:56.818Z,24.58
2023-04-30T06:28:59.001Z,22.48
2023-04-30T06:34:01.691Z,22.27
2023-04-30T06:39:05.647Z,21.16
2023-04-30T06:44:09.548Z,22.10
2023-04-30T06:49:12.278Z,20.95
2023-04-30T06:54:15.063Z,21.96
2023-04-30T06:59:18.138Z,24.23
2023-04-30T07:04:20.652Z,22.16
2023-04-30T07:09:23.120Z,21.89
2023-04-30T07:14:25.774Z,23.04
2023-04-30T07:19:27.854Z,22.95
2023-04-30T07:24:31.654Z,23.39
2023-04-30T07:29:34.636Z,23.22
2023-04-30T07:34:37.232Z,24.87
2023-04-30T07:39:39.999Z,25.82
2023-04-30T07:44:42.653Z,26.47
2023-04-30T07:49:45.372Z,28.83
2023-04-30T07:54:47.989Z,28.07
2023-04-30T07:59:51.418Z,30.63
2023-04-30T08:04:55.896Z,33.47
2023-04-30T08:09:58.514Z,34.97
2023-04-30T08:15:03.542Z,35.41
2023-04-30T08:20:07.338Z,33.79
2023-04-30T08:25:12.986Z,33.25
2023-04-30T08:30:15.722Z,33.43
2023-04-30T08:35:18.455Z,31.58
2023-04-30T08:40:23.561Z,32.67
2023-04-30T08:45:29.267Z,34.06
2023-04-30T08:50:32.496Z,33.16
2023-04-30T08:55:35.562Z,31.20
2023-04-30T09:00:39.980Z,32.87
2023-04-30T09:05:42.796Z,34.82
2023-04-30T09:10:45.516Z,36.05
2023-04-30T09:15:52.401Z,36.17
2023-04-30T09:21:02.194Z,33.85
2023-04-30T09:26:04.963Z,33.09
2023-04-30T09:31:22.381Z,33.11
2023-04-30T09:36:25.098Z,34.38
2023-04-30T09:41:29.614Z,35.33
2023-04-30T09:46:34.885Z,34.34
2023-04-30T09:51:54.851Z,35.13
2023-04-30T09:56:59.538Z,34.80
2023-04-30T10:02:04.706Z,35.23
2023-04-30T10:07:12.516Z,36.41
2023-04-30T10:12:23.830Z,34.65
2023-04-30T10:17:29.909Z,34.36
2023-04-30T10:22:35.352Z,32.78
2023-04-30T10:27:38.282Z,32.95
2023-04-30T10:32:56.353Z,33.98
2023-04-30T10:38:16.296Z,33.26
2023-04-30T10:43:20.172Z,31.77
2023-04-30T10:48:27.578Z,33.44
2023-04-30T10:53:34.029Z,31.65
2023-04-30T10:58:39.644Z,32.16
2023-04-30T11:04:03.306Z,34.38
2023-04-30T11:09:05.947Z,35.06
2023-04-30T11:14:11.628Z,36.80
2023-04-30T11:19:15.269Z,37.61
2023-04-30T11:24:20.401Z,38.19
2023-04-30T11:29:23.126Z,37.75
2023-04-30T11:34:26.231Z,37.39
2023-04-30T11:39:30.038Z,39.15
2023-04-30T11:44:32.871Z,41.54
2023-04-30T11:49:35.717Z,43.72
2023-04-30T11:54:38.489Z,39.94
2023-04-30T11:59:42.508Z,38.72
2023-04-30T12:04:45.510Z,39.39
2023-04-30T12:09:57.741Z,39.19
2023-04-30T12:15:12.528Z,41.11
2023-04-30T12:20:16.069Z,41.35
2023-04-30T12:25:20.988Z,41.39
2023-04-30T12:30:27.355Z,41.92
2023-04-30T12:35:32.700Z,41.53
2023-04-30T12:40:35.926Z,40.94
2023-04-30T12:45:56.034Z,39.45
2023-04-30T12:51:01.428Z,38.75
2023-04-30T12:56:17.754Z,39.17
2023-04-30T13:01:23.299Z,40.46
2023-04-30T13:06:27.856Z,40.00
2023-04-30T13:11:30.409Z,38.63
2023-04-30T13:16:33.254Z,38.82
2023-04-30T13:21:35.971Z,39.01
2023-04-30T13:26:38.133Z,37.06
2023-04-30T13:31:42.609Z,36.31
2023-04-30T13:36:47.086Z,36.41
2023-04-30T13:41:49.639Z,36.14
2023-04-30T13:46:52.447Z,36.42
2023-04-30T13:51:55.120Z,39.01
2023-04-30T13:56:59.889Z,41.86
2023-04-30T14:02:02.750Z,44.92
2023-04-30T14:07:04.995Z,42.48
2023-04-30T14:12:07.636Z,39.58
2023-04-30T14:17:09.923Z,38.07
2023-04-30T14:22:12.773Z,38.64
2023-04-30T14:27:15.619Z,39.41
2023-04-30T14:32:18.528Z,40.37
2023-04-30T14:37:20.874Z,41.43
2023-04-30T14:42:26.737Z,41.35
2023-04-30T14:47:29.289Z,42.49
2023-04-30T14:52:36.641Z,40.00
2023-04-30T14:57:39.594Z,40.42
2023-04-30T15:02:42.251Z,39.19
2023-04-30T15:07:44.779Z,39.52
2023-04-30T15:12:47.421Z,40.21
2023-04-30T15:17:49.755Z,41.31
2023-04-30T15:22:55.118Z,41.35
2023-04-30T15:27:58.542Z,41.41
2023-04-30T15:33:01.251Z,40.27
2023-04-30T15:38:03.536Z,42.00
2023-04-30T15:43:06.530Z,43.28
2023-04-30T15:48:09.362Z,43.04
2023-04-30T15:53:11.577Z,42.08
2023-04-30T15:58:14.130Z,42.61
2023-04-30T16:03:16.953Z,43.59
2023-04-30T16:08:20.002Z,43.45
2023-04-30T16:13:22.270Z,41.84
2023-04-30T16:18:25.127Z,41.80
2023-04-30T16:23:28.717Z,41.66
2023-04-30T16:28:31.508Z,44.49
2023-04-30T16:33:34.081Z,45.89
2023-04-30T16:38:37.328Z,47.46
2023-04-30T16:43:40.175Z,49.31
2023-04-30T16:48:42.826Z,53.56
2023-04-30T16:53:45.609Z,55.64
2023-04-30T16:58:48.323Z,57.19
2023-04-30T17:03:51.622Z,59.64
2023-04-30T17:08:54.776Z,63.40
2023-04-30T17:13:58.395Z,67.56
2023-04-30T17:19:00.939Z,68.43
2023-04-30T17:24:04.031Z,81.71
2023-04-30T17:29:06.816Z,96.42
2023-04-30T17:34:09.122Z,96.15
2023-04-30T17:39:12.992Z,100.00
2023-04-30T17:44:19.691Z,100.00
2023-04-30T17:49:22.224Z,100.00
2023-04-30T17:54:25.833Z,100.00
2023-04-30T17:59:30.521Z,100.00
2023-04-30T18:04:32.757Z,100.00
2023-04-30T18:09:36.244Z,100.00
2023-04-30T18:14:38.989Z,100.00
2023-04-30T18:19:44.775Z,100.00
2023-04-30T18:24:47.496Z,100.00
2023-04-30T18:29:50.493Z,100.00
2023-04-30T18:34:52.615Z,100.00
2023-04-30T18:39:55.925Z,100.00
2023-04-30T18:44:59.079Z,100.00
2023-04-30T18:50:01.268Z,100.00
2023-04-30T18:55:06.681Z,100.00
2023-04-30T19:00:10.662Z,100.00
2023-04-30T19:05:14.408Z,100.00
2023-04-30T19:10:17.078Z,100.00
2023-04-30T19:15:19.930Z,100.00
2023-04-30T19:20:22.577Z,100.00
2023-04-30T19:25:27.859Z,100.00
2023-04-30T19:30:30.763Z,100.00
2023-04-30T19:35:35.455Z,100.00
2023-04-30T19:40:38.083Z,100.00
2023-04-30T19:45:57.627Z,100.00
2023-04-30T19:51:09.627Z,100.00
2023-04-30T19:56:12.645Z,100.00
2023-04-30T20:01:15.546Z,100.00
2023-04-30T20:06:18.830Z,100.00
2023-04-30T20:11:21.571Z,100.00
2023-04-30T20:16:24.313Z,100.00
2023-04-30T20:21:33.189Z,100.00
2023-04-30T20:26:38.373Z,100.00
2023-04-30T20:31:46.083Z,100.00
2023-04-30T20:36:49.777Z,100.00
2023-04-30T20:41:55.386Z,100.00
2023-04-30T20:46:58.261Z,100.00
2023-04-30T20:52:00.816Z,100.00
2023-04-30T20:57:03.418Z,100.00
2023-04-30T21:02:06.134Z,100.00
2023-04-30T21:07:08.471Z,100.00
2023-04-30T21:12:11.979Z,100.00
2023-04-30T21:22:45.872Z,100.00
2023-04-30T21:27:52.501Z,100.00
2023-04-30T21:33:01.104Z,100.00
2023-04-30T21:38:06.768Z,100.00
2023-04-30T21:43:12.033Z,100.00
2023-04-30T21:48:58.176Z,100.00
2023-04-30T21:54:00.771Z,100.00
2023-04-30T21:59:03.396Z,100.00
2023-04-30T22:04:06.459Z,100.00
2023-04-30T22:09:11.544Z,100.00
2023-04-30T22:14:14.175Z,100.00
2023-04-30T22:19:17.022Z,100.00
2023-04-30T22:24:19.735Z,100.00
2023-04-30T22:29:21.829Z,100.00
2023-04-30T22:34:24.409Z,100.00
2023-04-30T22:39:26.938Z,100.00
2023-04-30T22:44:30.044Z,100.00
2023-04-30T22:49:33.146Z,100.00
2023-04-30T22:54:36.233Z,100.00
2023-04-30T22:59:39.773Z,100.00
2023-04-30T23:04:42.354Z,100.00
2023-04-30T23:09:45.602Z,100.00
2023-04-30T23:14:48.365Z,100.00
2023-04-30T23:19:50.764Z,100.00
2023-04-30T23:24:53.473Z,100.00
2023-04-30T23:29:56.432Z,100.00
2023-04-30T23:34:59.386Z,100.00
2023-04-30T23:40:01.797Z,100.00
2023-04-30T23:45:04.732Z,100.00
2023-04-30T23:50:08.126Z,100.00
2023-04-30T23:55:11.404Z,100.00
